sensor_id;sensor_type;location;lat;lon;timestamp;P1;durP1;ratioP1;P2;durP2;ratioP2
67757;SDS011;54562;47.620;18.786;2022-08-30T00:02:12;8.10;;;5.20;;
67757;SDS011;54562;47.620;18.786;2022-08-30T00:05:21;7.70;;;5.00;;
67757;SDS011;54562;47.620;18.786;2022-08-30T00:08:29;8.00;;;5.30;;
67757;SDS011;54562;47.620;18.786;2022-08-30T00:11:37;8.80;;;4.90;;
67757;SDS011;54562;47.620;18.786;2022-08-30T00:14:46;8.60;;;5.30;;
67757;SDS011;54562;47.620;18.786;2022-08-30T00:17:54;10.50;;;5.50;;
67757;SDS011;54562;47.620;18.786;2022-08-30T00:21:03;10.00;;;5.70;;
67757;SDS011;54562;47.620;18.786;2022-08-30T00:27:17;10.30;;;5.60;;
67757;SDS011;54562;47.620;18.786;2022-08-30T00:30:26;9.40;;;5.60;;
67757;SDS011;54562;47.620;18.786;2022-08-30T00:33:34;9.10;;;5.70;;
67757;SDS011;54562;47.620;18.786;2022-08-30T00:36:43;11.10;;;6.10;;
67757;SDS011;54562;47.620;18.786;2022-08-30T00:39:50;11.00;;;5.80;;
67757;SDS011;54562;47.620;18.786;2022-08-30T00:43:01;10.00;;;6.00;;
67757;SDS011;54562;47.620;18.786;2022-08-30T00:46:17;8.80;;;5.80;;
67757;SDS011;54562;47.620;18.786;2022-08-30T00:49:26;8.50;;;5.80;;
67757;SDS011;54562;47.620;18.786;2022-08-30T00:52:35;11.90;;;6.00;;
67757;SDS011;54562;47.620;18.786;2022-08-30T00:55:46;8.60;;;6.00;;
67757;SDS011;54562;47.620;18.786;2022-08-30T00:58:56;8.40;;;5.70;;
67757;SDS011;54562;47.620;18.786;2022-08-30T01:02:07;10.70;;;6.00;;
67757;SDS011;54562;47.620;18.786;2022-08-30T01:05:16;9.40;;;6.50;;
67757;SDS011;54562;47.620;18.786;2022-08-30T01:08:24;9.70;;;6.40;;
67757;SDS011;54562;47.620;18.786;2022-08-30T01:11:34;10.20;;;6.40;;
67757;SDS011;54562;47.620;18.786;2022-08-30T01:14:43;9.40;;;6.30;;
67757;SDS011;54562;47.620;18.786;2022-08-30T01:17:52;11.20;;;7.00;;
67757;SDS011;54562;47.620;18.786;2022-08-30T01:21:04;11.60;;;6.50;;
67757;SDS011;54562;47.620;18.786;2022-08-30T01:24:19;10.70;;;6.90;;
67757;SDS011;54562;47.620;18.786;2022-08-30T01:27:28;9.90;;;6.20;;
67757;SDS011;54562;47.620;18.786;2022-08-30T01:30:38;9.40;;;6.10;;
67757;SDS011;54562;47.620;18.786;2022-08-30T01:33:47;9.80;;;6.00;;
67757;SDS011;54562;47.620;18.786;2022-08-30T01:36:56;9.00;;;6.00;;
67757;SDS011;54562;47.620;18.786;2022-08-30T01:40:06;9.90;;;6.00;;
67757;SDS011;54562;47.620;18.786;2022-08-30T01:43:16;9.40;;;5.30;;
67757;SDS011;54562;47.620;18.786;2022-08-30T01:46:28;10.60;;;6.10;;
67757;SDS011;54562;47.620;18.786;2022-08-30T01:49:40;10.10;;;6.20;;
67757;SDS011;54562;47.620;18.786;2022-08-30T01:52:48;9.90;;;6.00;;
67757;SDS011;54562;47.620;18.786;2022-08-30T01:55:56;8.90;;;6.00;;
67757;SDS011;54562;47.620;18.786;2022-08-30T01:59:04;9.90;;;5.70;;
67757;SDS011;54562;47.620;18.786;2022-08-30T02:02:12;8.50;;;5.40;;
67757;SDS011;54562;47.620;18.786;2022-08-30T02:05:21;10.70;;;6.20;;
67757;SDS011;54562;47.620;18.786;2022-08-30T02:08:29;10.30;;;6.00;;
67757;SDS011;54562;47.620;18.786;2022-08-30T02:11:38;9.20;;;6.10;;
67757;SDS011;54562;47.620;18.786;2022-08-30T02:14:47;10.00;;;6.20;;
67757;SDS011;54562;47.620;18.786;2022-08-30T02:17:55;9.60;;;6.20;;
67757;SDS011;54562;47.620;18.786;2022-08-30T02:21:05;9.40;;;6.00;;
67757;SDS011;54562;47.620;18.786;2022-08-30T02:24:14;9.90;;;6.30;;
67757;SDS011;54562;47.620;18.786;2022-08-30T02:27:22;9.30;;;6.00;;
67757;SDS011;54562;47.620;18.786;2022-08-30T02:30:30;9.60;;;5.80;;
67757;SDS011;54562;47.620;18.786;2022-08-30T02:33:38;10.80;;;6.30;;
67757;SDS011;54562;47.620;18.786;2022-08-30T02:36:46;9.60;;;6.40;;
67757;SDS011;54562;47.620;18.786;2022-08-30T02:39:54;10.30;;;6.20;;
67757;SDS011;54562;47.620;18.786;2022-08-30T02:43:02;9.40;;;6.10;;
67757;SDS011;54562;47.620;18.786;2022-08-30T02:46:11;8.90;;;5.90;;
67757;SDS011;54562;47.620;18.786;2022-08-30T02:49:19;8.50;;;5.30;;
67757;SDS011;54562;47.620;18.786;2022-08-30T02:52:37;10.20;;;5.50;;
67757;SDS011;54562;47.620;18.786;2022-08-30T02:55:49;8.90;;;5.40;;
67757;SDS011;54562;47.620;18.786;2022-08-30T02:58:57;11.30;;;5.90;;
67757;SDS011;54562;47.620;18.786;2022-08-30T03:02:05;10.20;;;6.70;;
67757;SDS011;54562;47.620;18.786;2022-08-30T03:05:15;11.00;;;7.00;;
67757;SDS011;54562;47.620;18.786;2022-08-30T03:08:23;13.10;;;7.30;;
67757;SDS011;54562;47.620;18.786;2022-08-30T03:11:31;11.80;;;7.50;;
67757;SDS011;54562;47.620;18.786;2022-08-30T03:14:39;12.20;;;7.40;;
67757;SDS011;54562;47.620;18.786;2022-08-30T03:17:48;12.20;;;7.00;;
67757;SDS011;54562;47.620;18.786;2022-08-30T03:20:56;11.50;;;7.30;;
67757;SDS011;54562;47.620;18.786;2022-08-30T03:24:04;10.00;;;6.90;;
67757;SDS011;54562;47.620;18.786;2022-08-30T03:27:13;14.40;;;7.40;;
67757;SDS011;54562;47.620;18.786;2022-08-30T03:30:21;13.10;;;7.30;;
67757;SDS011;54562;47.620;18.786;2022-08-30T03:33:29;11.90;;;8.10;;
67757;SDS011;54562;47.620;18.786;2022-08-30T03:36:37;13.80;;;8.70;;
67757;SDS011;54562;47.620;18.786;2022-08-30T03:39:45;11.80;;;8.30;;
67757;SDS011;54562;47.620;18.786;2022-08-30T03:42:54;11.90;;;7.60;;
67757;SDS011;54562;47.620;18.786;2022-08-30T03:46:03;11.70;;;7.70;;
67757;SDS011;54562;47.620;18.786;2022-08-30T03:49:11;13.10;;;8.30;;
67757;SDS011;54562;47.620;18.786;2022-08-30T03:52:19;13.70;;;8.20;;
67757;SDS011;54562;47.620;18.786;2022-08-30T03:55:27;12.10;;;7.90;;
67757;SDS011;54562;47.620;18.786;2022-08-30T03:58:35;14.10;;;8.10;;
67757;SDS011;54562;47.620;18.786;2022-08-30T04:01:44;14.20;;;8.60;;
67757;SDS011;54562;47.620;18.786;2022-08-30T04:04:52;12.60;;;8.20;;
67757;SDS011;54562;47.620;18.786;2022-08-30T04:08:00;13.10;;;8.20;;
67757;SDS011;54562;47.620;18.786;2022-08-30T04:11:08;12.60;;;7.90;;
67757;SDS011;54562;47.620;18.786;2022-08-30T04:14:16;13.00;;;7.90;;
67757;SDS011;54562;47.620;18.786;2022-08-30T04:17:27;13.30;;;7.80;;
67757;SDS011;54562;47.620;18.786;2022-08-30T04:20:35;13.50;;;8.20;;
67757;SDS011;54562;47.620;18.786;2022-08-30T04:23:43;11.30;;;7.80;;
67757;SDS011;54562;47.620;18.786;2022-08-30T04:26:51;12.60;;;7.40;;
67757;SDS011;54562;47.620;18.786;2022-08-30T04:30:00;13.20;;;7.40;;
67757;SDS011;54562;47.620;18.786;2022-08-30T04:33:08;13.00;;;7.70;;
67757;SDS011;54562;47.620;18.786;2022-08-30T04:36:18;11.80;;;7.40;;
67757;SDS011;54562;47.620;18.786;2022-08-30T04:39:26;12.00;;;8.10;;
67757;SDS011;54562;47.620;18.786;2022-08-30T04:42:35;11.70;;;8.40;;
67757;SDS011;54562;47.620;18.786;2022-08-30T04:45:43;13.00;;;8.70;;
67757;SDS011;54562;47.620;18.786;2022-08-30T04:48:52;15.10;;;8.30;;
67757;SDS011;54562;47.620;18.786;2022-08-30T04:52:00;12.40;;;8.50;;
67757;SDS011;54562;47.620;18.786;2022-08-30T04:55:11;14.40;;;8.70;;
67757;SDS011;54562;47.620;18.786;2022-08-30T04:58:24;12.50;;;8.60;;
67757;SDS011;54562;47.620;18.786;2022-08-30T05:01:33;12.10;;;7.80;;
67757;SDS011;54562;47.620;18.786;2022-08-30T05:04:49;12.20;;;7.60;;
67757;SDS011;54562;47.620;18.786;2022-08-30T05:08:21;12.20;;;8.30;;
67757;SDS011;54562;47.620;18.786;2022-08-30T05:11:29;13.60;;;8.40;;
67757;SDS011;54562;47.620;18.786;2022-08-30T05:14:38;12.80;;;8.30;;
67757;SDS011;54562;47.620;18.786;2022-08-30T05:17:46;13.40;;;8.70;;
67757;SDS011;54562;47.620;18.786;2022-08-30T05:21:05;16.00;;;9.40;;
67757;SDS011;54562;47.620;18.786;2022-08-30T05:24:14;16.40;;;9.70;;
67757;SDS011;54562;47.620;18.786;2022-08-30T05:27:23;14.80;;;10.30;;
67757;SDS011;54562;47.620;18.786;2022-08-30T05:30:33;15.20;;;10.80;;
67757;SDS011;54562;47.620;18.786;2022-08-30T05:33:42;16.60;;;11.30;;
67757;SDS011;54562;47.620;18.786;2022-08-30T05:37:02;21.80;;;14.00;;
67757;SDS011;54562;47.620;18.786;2022-08-30T05:40:11;20.40;;;12.50;;
67757;SDS011;54562;47.620;18.786;2022-08-30T05:43:22;22.20;;;12.00;;
67757;SDS011;54562;47.620;18.786;2022-08-30T05:46:35;23.10;;;10.40;;
67757;SDS011;54562;47.620;18.786;2022-08-30T05:49:47;23.30;;;9.40;;
67757;SDS011;54562;47.620;18.786;2022-08-30T05:52:55;17.30;;;8.80;;
67757;SDS011;54562;47.620;18.786;2022-08-30T05:56:05;20.80;;;7.70;;
67757;SDS011;54562;47.620;18.786;2022-08-30T05:59:15;12.50;;;6.80;;
67757;SDS011;54562;47.620;18.786;2022-08-30T06:02:23;12.00;;;7.20;;
67757;SDS011;54562;47.620;18.786;2022-08-30T06:05:32;9.50;;;6.00;;
67757;SDS011;54562;47.620;18.786;2022-08-30T06:11:52;9.70;;;6.10;;
67757;SDS011;54562;47.620;18.786;2022-08-30T06:15:01;10.60;;;7.00;;
67757;SDS011;54562;47.620;18.786;2022-08-30T06:18:10;12.20;;;7.30;;
67757;SDS011;54562;47.620;18.786;2022-08-30T06:21:19;11.00;;;7.30;;
67757;SDS011;54562;47.620;18.786;2022-08-30T06:24:28;13.10;;;7.20;;
67757;SDS011;54562;47.620;18.786;2022-08-30T06:27:56;11.20;;;7.50;;
67757;SDS011;54562;47.620;18.786;2022-08-30T06:31:07;11.40;;;7.40;;
67757;SDS011;54562;47.620;18.786;2022-08-30T06:34:17;10.10;;;6.10;;
67757;SDS011;54562;47.620;18.786;2022-08-30T06:37:26;10.30;;;6.40;;
67757;SDS011;54562;47.620;18.786;2022-08-30T06:40:33;10.40;;;6.20;;
67757;SDS011;54562;47.620;18.786;2022-08-30T06:43:43;9.80;;;7.20;;
67757;SDS011;54562;47.620;18.786;2022-08-30T06:46:53;11.50;;;7.30;;
67757;SDS011;54562;47.620;18.786;2022-08-30T06:50:00;9.70;;;6.80;;
67757;SDS011;54562;47.620;18.786;2022-08-30T06:53:09;12.50;;;6.90;;
67757;SDS011;54562;47.620;18.786;2022-08-30T06:56:18;10.10;;;6.80;;
67757;SDS011;54562;47.620;18.786;2022-08-30T06:59:27;15.80;;;6.90;;
67757;SDS011;54562;47.620;18.786;2022-08-30T07:02:36;9.30;;;6.50;;
67757;SDS011;54562;47.620;18.786;2022-08-30T07:05:44;9.80;;;6.60;;
67757;SDS011;54562;47.620;18.786;2022-08-30T07:12:03;11.30;;;7.00;;
67757;SDS011;54562;47.620;18.786;2022-08-30T07:15:12;10.60;;;7.10;;
67757;SDS011;54562;47.620;18.786;2022-08-30T07:18:24;10.60;;;7.10;;
67757;SDS011;54562;47.620;18.786;2022-08-30T07:21:50;10.90;;;7.00;;
67757;SDS011;54562;47.620;18.786;2022-08-30T07:24:58;9.40;;;6.40;;
67757;SDS011;54562;47.620;18.786;2022-08-30T07:28:07;10.10;;;6.70;;
67757;SDS011;54562;47.620;18.786;2022-08-30T07:31:17;10.00;;;6.70;;
67757;SDS011;54562;47.620;18.786;2022-08-30T07:37:32;9.70;;;6.10;;
67757;SDS011;54562;47.620;18.786;2022-08-30T07:40:40;9.80;;;5.80;;
67757;SDS011;54562;47.620;18.786;2022-08-30T07:43:49;11.00;;;6.00;;
67757;SDS011;54562;47.620;18.786;2022-08-30T07:46:57;9.20;;;6.40;;
67757;SDS011;54562;47.620;18.786;2022-08-30T07:50:06;10.20;;;6.10;;
67757;SDS011;54562;47.620;18.786;2022-08-30T07:53:15;10.40;;;6.10;;
67757;SDS011;54562;47.620;18.786;2022-08-30T07:56:23;9.60;;;6.30;;
67757;SDS011;54562;47.620;18.786;2022-08-30T07:59:32;9.50;;;6.00;;
67757;SDS011;54562;47.620;18.786;2022-08-30T08:05:49;9.30;;;6.00;;
67757;SDS011;54562;47.620;18.786;2022-08-30T08:08:57;8.90;;;5.80;;
67757;SDS011;54562;47.620;18.786;2022-08-30T08:12:07;10.10;;;5.90;;
67757;SDS011;54562;47.620;18.786;2022-08-30T08:15:15;10.60;;;5.70;;
67757;SDS011;54562;47.620;18.786;2022-08-30T08:18:23;8.10;;;5.20;;
67757;SDS011;54562;47.620;18.786;2022-08-30T08:21:31;8.30;;;5.70;;
67757;SDS011;54562;47.620;18.786;2022-08-30T08:24:40;11.20;;;5.90;;
67757;SDS011;54562;47.620;18.786;2022-08-30T08:27:49;8.60;;;5.10;;
67757;SDS011;54562;47.620;18.786;2022-08-30T08:30:58;10.00;;;5.20;;
67757;SDS011;54562;47.620;18.786;2022-08-30T08:34:07;10.30;;;5.50;;
67757;SDS011;54562;47.620;18.786;2022-08-30T08:37:15;8.70;;;5.20;;
67757;SDS011;54562;47.620;18.786;2022-08-30T08:40:34;9.00;;;5.40;;
67757;SDS011;54562;47.620;18.786;2022-08-30T08:43:50;11.40;;;5.50;;
67757;SDS011;54562;47.620;18.786;2022-08-30T08:47:05;8.10;;;5.20;;
67757;SDS011;54562;47.620;18.786;2022-08-30T08:50:20;10.60;;;5.20;;
67757;SDS011;54562;47.620;18.786;2022-08-30T08:53:33;10.30;;;5.00;;
67757;SDS011;54562;47.620;18.786;2022-08-30T08:56:51;9.40;;;4.80;;
67757;SDS011;54562;47.620;18.786;2022-08-30T08:59:59;9.70;;;5.10;;
67757;SDS011;54562;47.620;18.786;2022-08-30T09:03:11;11.40;;;5.20;;
67757;SDS011;54562;47.620;18.786;2022-08-30T09:06:36;9.00;;;5.40;;
67757;SDS011;54562;47.620;18.786;2022-08-30T09:09:50;10.80;;;5.70;;
67757;SDS011;54562;47.620;18.786;2022-08-30T09:12:59;9.60;;;6.10;;
67757;SDS011;54562;47.620;18.786;2022-08-30T09:16:08;8.60;;;5.70;;
67757;SDS011;54562;47.620;18.786;2022-08-30T09:19:39;9.40;;;5.80;;
67757;SDS011;54562;47.620;18.786;2022-08-30T09:22:49;9.40;;;5.70;;
67757;SDS011;54562;47.620;18.786;2022-08-30T09:25:59;8.60;;;5.40;;
67757;SDS011;54562;47.620;18.786;2022-08-30T09:29:16;7.60;;;5.10;;
67757;SDS011;54562;47.620;18.786;2022-08-30T09:32:29;8.70;;;5.00;;
67757;SDS011;54562;47.620;18.786;2022-08-30T09:35:45;8.70;;;5.20;;
67757;SDS011;54562;47.620;18.786;2022-08-30T09:39:03;9.40;;;5.30;;
67757;SDS011;54562;47.620;18.786;2022-08-30T09:42:14;8.70;;;5.40;;
67757;SDS011;54562;47.620;18.786;2022-08-30T09:45:32;11.20;;;5.50;;
67757;SDS011;54562;47.620;18.786;2022-08-30T09:48:44;9.90;;;5.30;;
67757;SDS011;54562;47.620;18.786;2022-08-30T09:51:57;10.30;;;5.80;;
67757;SDS011;54562;47.620;18.786;2022-08-30T09:55:42;11.00;;;5.10;;
67757;SDS011;54562;47.620;18.786;2022-08-30T09:59:12;8.70;;;5.60;;
67757;SDS011;54562;47.620;18.786;2022-08-30T10:02:46;9.10;;;5.40;;
67757;SDS011;54562;47.620;18.786;2022-08-30T10:06:07;8.90;;;5.90;;
67757;SDS011;54562;47.620;18.786;2022-08-30T10:09:26;10.20;;;5.90;;
67757;SDS011;54562;47.620;18.786;2022-08-30T10:12:52;10.00;;;5.60;;
67757;SDS011;54562;47.620;18.786;2022-08-30T10:16:15;9.60;;;5.40;;
67757;SDS011;54562;47.620;18.786;2022-08-30T10:19:44;8.20;;;5.30;;
67757;SDS011;54562;47.620;18.786;2022-08-30T10:23:08;8.90;;;5.20;;
67757;SDS011;54562;47.620;18.786;2022-08-30T10:26:27;8.80;;;5.20;;
67757;SDS011;54562;47.620;18.786;2022-08-30T10:29:42;9.30;;;5.10;;
67757;SDS011;54562;47.620;18.786;2022-08-30T10:32:57;8.70;;;5.00;;
67757;SDS011;54562;47.620;18.786;2022-08-30T10:36:12;8.90;;;5.00;;
67757;SDS011;54562;47.620;18.786;2022-08-30T10:39:24;7.90;;;4.90;;
67757;SDS011;54562;47.620;18.786;2022-08-30T10:42:36;8.80;;;4.80;;
67757;SDS011;54562;47.620;18.786;2022-08-30T10:45:47;7.30;;;4.90;;
67757;SDS011;54562;47.620;18.786;2022-08-30T10:49:00;7.60;;;4.80;;
67757;SDS011;54562;47.620;18.786;2022-08-30T10:52:30;9.30;;;4.80;;
67757;SDS011;54562;47.620;18.786;2022-08-30T10:55:48;8.90;;;5.20;;
67757;SDS011;54562;47.620;18.786;2022-08-30T10:58:58;7.90;;;4.90;;
67757;SDS011;54562;47.620;18.786;2022-08-30T11:02:22;7.90;;;4.70;;
67757;SDS011;54562;47.620;18.786;2022-08-30T11:05:57;8.50;;;4.80;;
67757;SDS011;54562;47.620;18.786;2022-08-30T11:09:33;7.40;;;4.50;;
67757;SDS011;54562;47.620;18.786;2022-08-30T11:12:56;9.50;;;4.60;;
67757;SDS011;54562;47.620;18.786;2022-08-30T11:16:09;13.50;;;7.90;;
67757;SDS011;54562;47.620;18.786;2022-08-30T11:19:23;9.30;;;4.90;;
67757;SDS011;54562;47.620;18.786;2022-08-30T11:23:06;7.60;;;4.50;;
67757;SDS011;54562;47.620;18.786;2022-08-30T11:27:00;7.00;;;4.70;;
67757;SDS011;54562;47.620;18.786;2022-08-30T11:33:56;7.40;;;4.90;;
67757;SDS011;54562;47.620;18.786;2022-08-30T11:37:06;7.60;;;4.90;;
67757;SDS011;54562;47.620;18.786;2022-08-30T11:44:12;8.30;;;4.50;;
67757;SDS011;54562;47.620;18.786;2022-08-30T11:47:41;9.00;;;5.00;;
67757;SDS011;54562;47.620;18.786;2022-08-30T11:50:54;8.70;;;4.90;;
67757;SDS011;54562;47.620;18.786;2022-08-30T11:54:18;8.50;;;4.80;;
67757;SDS011;54562;47.620;18.786;2022-08-30T11:57:43;7.70;;;5.00;;
67757;SDS011;54562;47.620;18.786;2022-08-30T12:01:19;7.70;;;4.80;;
67757;SDS011;54562;47.620;18.786;2022-08-30T12:04:55;8.30;;;5.10;;
67757;SDS011;54562;47.620;18.786;2022-08-30T12:08:05;11.20;;;5.40;;
67757;SDS011;54562;47.620;18.786;2022-08-30T12:15:27;8.70;;;4.90;;
67757;SDS011;54562;47.620;18.786;2022-08-30T12:18:51;8.90;;;5.20;;
67757;SDS011;54562;47.620;18.786;2022-08-30T12:22:08;9.00;;;5.30;;
67757;SDS011;54562;47.620;18.786;2022-08-30T12:25:29;9.10;;;5.60;;
67757;SDS011;54562;47.620;18.786;2022-08-30T12:28:39;7.40;;;5.20;;
67757;SDS011;54562;47.620;18.786;2022-08-30T12:31:53;7.50;;;4.60;;
67757;SDS011;54562;47.620;18.786;2022-08-30T12:35:05;8.00;;;5.10;;
67757;SDS011;54562;47.620;18.786;2022-08-30T12:38:22;8.30;;;5.00;;
67757;SDS011;54562;47.620;18.786;2022-08-30T12:41:31;8.70;;;4.80;;
67757;SDS011;54562;47.620;18.786;2022-08-30T12:44:49;8.00;;;4.60;;
67757;SDS011;54562;47.620;18.786;2022-08-30T12:48:02;7.50;;;4.70;;
67757;SDS011;54562;47.620;18.786;2022-08-30T12:51:32;8.40;;;4.50;;
67757;SDS011;54562;47.620;18.786;2022-08-30T12:54:45;7.70;;;4.30;;
67757;SDS011;54562;47.620;18.786;2022-08-30T12:58:01;7.20;;;4.30;;
67757;SDS011;54562;47.620;18.786;2022-08-30T13:01:22;7.70;;;4.30;;
67757;SDS011;54562;47.620;18.786;2022-08-30T13:04:35;9.00;;;4.60;;
67757;SDS011;54562;47.620;18.786;2022-08-30T13:07:43;9.50;;;4.70;;
67757;SDS011;54562;47.620;18.786;2022-08-30T13:10:57;6.70;;;4.40;;
67757;SDS011;54562;47.620;18.786;2022-08-30T13:14:32;8.30;;;4.40;;
67757;SDS011;54562;47.620;18.786;2022-08-30T13:17:46;8.80;;;4.20;;
67757;SDS011;54562;47.620;18.786;2022-08-30T13:24:32;9.70;;;4.50;;
67757;SDS011;54562;47.620;18.786;2022-08-30T13:27:41;7.90;;;4.20;;
67757;SDS011;54562;47.620;18.786;2022-08-30T13:30:49;6.30;;;3.90;;
67757;SDS011;54562;47.620;18.786;2022-08-30T13:33:58;6.00;;;3.90;;
67757;SDS011;54562;47.620;18.786;2022-08-30T13:37:11;7.30;;;4.20;;
67757;SDS011;54562;47.620;18.786;2022-08-30T13:40:42;6.20;;;3.90;;
67757;SDS011;54562;47.620;18.786;2022-08-30T13:43:51;7.00;;;4.10;;
67757;SDS011;54562;47.620;18.786;2022-08-30T13:47:18;7.90;;;4.20;;
67757;SDS011;54562;47.620;18.786;2022-08-30T13:50:42;8.00;;;4.30;;
67757;SDS011;54562;47.620;18.786;2022-08-30T13:53:51;7.80;;;4.20;;
67757;SDS011;54562;47.620;18.786;2022-08-30T13:57:00;7.90;;;4.00;;
67757;SDS011;54562;47.620;18.786;2022-08-30T14:00:14;7.20;;;4.10;;
67757;SDS011;54562;47.620;18.786;2022-08-30T14:03:25;6.80;;;4.10;;
67757;SDS011;54562;47.620;18.786;2022-08-30T14:06:34;7.50;;;3.90;;
67757;SDS011;54562;47.620;18.786;2022-08-30T14:10:02;7.10;;;4.00;;
67757;SDS011;54562;47.620;18.786;2022-08-30T14:13:31;8.60;;;3.90;;
67757;SDS011;54562;47.620;18.786;2022-08-30T14:16:43;8.60;;;3.80;;
67757;SDS011;54562;47.620;18.786;2022-08-30T14:19:52;6.90;;;4.10;;
67757;SDS011;54562;47.620;18.786;2022-08-30T14:23:01;7.20;;;3.90;;
67757;SDS011;54562;47.620;18.786;2022-08-30T14:26:17;6.90;;;3.90;;
67757;SDS011;54562;47.620;18.786;2022-08-30T14:29:27;6.80;;;3.80;;
67757;SDS011;54562;47.620;18.786;2022-08-30T14:32:35;7.10;;;3.90;;
67757;SDS011;54562;47.620;18.786;2022-08-30T14:35:44;7.50;;;4.20;;
67757;SDS011;54562;47.620;18.786;2022-08-30T14:38:52;6.20;;;3.70;;
67757;SDS011;54562;47.620;18.786;2022-08-30T14:42:01;6.50;;;3.80;;
67757;SDS011;54562;47.620;18.786;2022-08-30T14:45:13;6.40;;;3.90;;
67757;SDS011;54562;47.620;18.786;2022-08-30T14:48:23;7.30;;;3.60;;
67757;SDS011;54562;47.620;18.786;2022-08-30T14:51:33;5.80;;;3.70;;
67757;SDS011;54562;47.620;18.786;2022-08-30T14:54:42;6.10;;;3.50;;
67757;SDS011;54562;47.620;18.786;2022-08-30T14:57:50;5.60;;;3.70;;
67757;SDS011;54562;47.620;18.786;2022-08-30T15:00:58;7.60;;;3.40;;
67757;SDS011;54562;47.620;18.786;2022-08-30T15:04:07;6.10;;;3.50;;
67757;SDS011;54562;47.620;18.786;2022-08-30T15:07:16;6.30;;;3.40;;
67757;SDS011;54562;47.620;18.786;2022-08-30T15:10:25;6.50;;;3.60;;
67757;SDS011;54562;47.620;18.786;2022-08-30T15:13:33;7.20;;;3.80;;
67757;SDS011;54562;47.620;18.786;2022-08-30T15:16:42;7.40;;;3.90;;
67757;SDS011;54562;47.620;18.786;2022-08-30T15:19:50;5.90;;;3.30;;
67757;SDS011;54562;47.620;18.786;2022-08-30T15:22:58;8.50;;;3.70;;
67757;SDS011;54562;47.620;18.786;2022-08-30T15:26:06;5.70;;;3.50;;
67757;SDS011;54562;47.620;18.786;2022-08-30T15:29:17;9.30;;;3.70;;
67757;SDS011;54562;47.620;18.786;2022-08-30T15:32:27;6.00;;;3.50;;
67757;SDS011;54562;47.620;18.786;2022-08-30T15:35:35;7.30;;;3.40;;
67757;SDS011;54562;47.620;18.786;2022-08-30T15:38:43;6.50;;;3.40;;
67757;SDS011;54562;47.620;18.786;2022-08-30T15:41:53;7.50;;;3.60;;
67757;SDS011;54562;47.620;18.786;2022-08-30T15:45:07;6.00;;;3.20;;
67757;SDS011;54562;47.620;18.786;2022-08-30T15:48:15;6.60;;;3.40;;
67757;SDS011;54562;47.620;18.786;2022-08-30T15:51:24;6.40;;;3.40;;
67757;SDS011;54562;47.620;18.786;2022-08-30T15:54:44;5.70;;;3.20;;
67757;SDS011;54562;47.620;18.786;2022-08-30T15:57:53;5.80;;;3.10;;
67757;SDS011;54562;47.620;18.786;2022-08-30T16:01:01;5.80;;;3.20;;
67757;SDS011;54562;47.620;18.786;2022-08-30T16:04:09;8.60;;;3.50;;
67757;SDS011;54562;47.620;18.786;2022-08-30T16:07:18;6.20;;;3.20;;
67757;SDS011;54562;47.620;18.786;2022-08-30T16:10:26;7.40;;;3.10;;
67757;SDS011;54562;47.620;18.786;2022-08-30T16:13:34;6.00;;;3.40;;
67757;SDS011;54562;47.620;18.786;2022-08-30T16:16:41;5.90;;;3.30;;
67757;SDS011;54562;47.620;18.786;2022-08-30T16:19:50;9.70;;;3.40;;
67757;SDS011;54562;47.620;18.786;2022-08-30T16:23:02;7.90;;;3.20;;
67757;SDS011;54562;47.620;18.786;2022-08-30T16:26:11;5.90;;;3.30;;
67757;SDS011;54562;47.620;18.786;2022-08-30T16:29:22;6.70;;;3.10;;
67757;SDS011;54562;47.620;18.786;2022-08-30T16:32:33;6.00;;;3.30;;
67757;SDS011;54562;47.620;18.786;2022-08-30T16:35:41;10.10;;;3.20;;
67757;SDS011;54562;47.620;18.786;2022-08-30T16:38:49;6.80;;;3.10;;
67757;SDS011;54562;47.620;18.786;2022-08-30T16:42:01;6.80;;;3.00;;
67757;SDS011;54562;47.620;18.786;2022-08-30T16:45:11;7.50;;;3.30;;
67757;SDS011;54562;47.620;18.786;2022-08-30T16:51:27;6.50;;;3.20;;
67757;SDS011;54562;47.620;18.786;2022-08-30T16:54:37;8.10;;;3.20;;
67757;SDS011;54562;47.620;18.786;2022-08-30T16:57:47;7.30;;;3.80;;
67757;SDS011;54562;47.620;18.786;2022-08-30T17:00:55;6.70;;;3.70;;
67757;SDS011;54562;47.620;18.786;2022-08-30T17:04:04;7.40;;;3.60;;
67757;SDS011;54562;47.620;18.786;2022-08-30T17:10:25;6.00;;;3.20;;
67757;SDS011;54562;47.620;18.786;2022-08-30T17:13:37;7.30;;;3.50;;
67757;SDS011;54562;47.620;18.786;2022-08-30T17:16:45;7.40;;;3.00;;
67757;SDS011;54562;47.620;18.786;2022-08-30T17:19:52;15.90;;;3.50;;
67757;SDS011;54562;47.620;18.786;2022-08-30T17:23:01;11.90;;;3.40;;
67757;SDS011;54562;47.620;18.786;2022-08-30T17:26:09;8.80;;;3.40;;
67757;SDS011;54562;47.620;18.786;2022-08-30T17:29:17;10.80;;;3.40;;
67757;SDS011;54562;47.620;18.786;2022-08-30T17:32:27;6.40;;;3.20;;
67757;SDS011;54562;47.620;18.786;2022-08-30T17:35:35;6.80;;;3.30;;
67757;SDS011;54562;47.620;18.786;2022-08-30T17:38:43;16.50;;;3.60;;
67757;SDS011;54562;47.620;18.786;2022-08-30T17:41:52;8.00;;;3.50;;
67757;SDS011;54562;47.620;18.786;2022-08-30T17:45:05;6.50;;;3.40;;
67757;SDS011;54562;47.620;18.786;2022-08-30T17:48:15;7.50;;;3.50;;
67757;SDS011;54562;47.620;18.786;2022-08-30T17:51:23;6.90;;;3.30;;
67757;SDS011;54562;47.620;18.786;2022-08-30T17:54:33;6.70;;;3.20;;
67757;SDS011;54562;47.620;18.786;2022-08-30T17:57:41;9.60;;;3.60;;
67757;SDS011;54562;47.620;18.786;2022-08-30T18:00:49;7.30;;;3.40;;
67757;SDS011;54562;47.620;18.786;2022-08-30T18:08:10;7.00;;;3.30;;
67757;SDS011;54562;47.620;18.786;2022-08-30T18:12:00;10.80;;;3.70;;
67757;SDS011;54562;47.620;18.786;2022-08-30T18:15:18;17.40;;;3.80;;
67757;SDS011;54562;47.620;18.786;2022-08-30T18:18:26;11.70;;;3.80;;
67757;SDS011;54562;47.620;18.786;2022-08-30T18:21:39;18.90;;;4.20;;
67757;SDS011;54562;47.620;18.786;2022-08-30T18:24:46;12.80;;;4.00;;
67757;SDS011;54562;47.620;18.786;2022-08-30T18:27:54;8.80;;;3.90;;
67757;SDS011;54562;47.620;18.786;2022-08-30T18:31:03;9.50;;;3.70;;
67757;SDS011;54562;47.620;18.786;2022-08-30T18:34:13;6.50;;;3.50;;
67757;SDS011;54562;47.620;18.786;2022-08-30T18:37:20;13.80;;;4.70;;
67757;SDS011;54562;47.620;18.786;2022-08-30T18:40:28;11.20;;;5.00;;
67757;SDS011;54562;47.620;18.786;2022-08-30T18:43:38;13.50;;;6.10;;
67757;SDS011;54562;47.620;18.786;2022-08-30T18:46:46;6.90;;;4.00;;
67757;SDS011;54562;47.620;18.786;2022-08-30T18:50:00;6.90;;;4.00;;
67757;SDS011;54562;47.620;18.786;2022-08-30T18:53:08;10.70;;;4.00;;
67757;SDS011;54562;47.620;18.786;2022-08-30T18:56:17;9.00;;;3.90;;
67757;SDS011;54562;47.620;18.786;2022-08-30T18:59:31;8.30;;;3.70;;
67757;SDS011;54562;47.620;18.786;2022-08-30T19:02:40;8.80;;;3.90;;
67757;SDS011;54562;47.620;18.786;2022-08-30T19:05:52;7.10;;;3.90;;
67757;SDS011;54562;47.620;18.786;2022-08-30T19:09:00;9.00;;;3.90;;
67757;SDS011;54562;47.620;18.786;2022-08-30T19:12:13;7.60;;;3.80;;
67757;SDS011;54562;47.620;18.786;2022-08-30T19:15:22;7.30;;;3.80;;
67757;SDS011;54562;47.620;18.786;2022-08-30T19:18:30;8.90;;;4.00;;
67757;SDS011;54562;47.620;18.786;2022-08-30T19:21:39;7.80;;;4.10;;
67757;SDS011;54562;47.620;18.786;2022-08-30T19:58:29;7.60;;;3.40;;
67757;SDS011;54562;47.620;18.786;2022-08-30T20:05:44;6.70;;;3.30;;
67757;SDS011;54562;47.620;18.786;2022-08-30T20:08:55;7.00;;;3.50;;
67757;SDS011;54562;47.620;18.786;2022-08-30T20:12:10;7.50;;;3.50;;